sensor_id;sensor_type;location;lat;lon;timestamp;pressure;altitude;pressure_sealevel;temperature;humidity
70133;BME280;57495;49.922;7.966;2023-09-12T00:00:27;99452.78;;;20.74;99.59
70133;BME280;57495;49.922;7.966;2023-09-12T00:02:30;99449.66;;;20.77;100.00
70133;BME280;57495;49.922;7.966;2023-09-12T00:04:30;99439.75;;;20.82;100.00
70133;BME280;57495;49.922;7.966;2023-09-12T00:06:32;99443.00;;;20.91;99.84
70133;BME280;57495;49.922;7.966;2023-09-12T00:08:33;99436.22;;;21.00;99.27
70133;BME280;57495;49.922;7.966;2023-09-12T00:10:35;99437.88;;;21.01;99.10
70133;BME280;57495;49.922;7.966;2023-09-12T00:12:36;99433.50;;;21.00;98.63
70133;BME280;57495;49.922;7.966;2023-09-12T00:14:37;99439.38;;;20.79;98.39
70133;BME280;57495;49.922;7.966;2023-09-12T00:16:38;99437.91;;;20.51;100.00
70133;BME280;57495;49.922;7.966;2023-09-12T00:18:41;99432.72;;;20.50;100.00
70133;BME280;57495;49.922;7.966;2023-09-12T00:20:42;99437.84;;;20.64;100.00
70133;BME280;57495;49.922;7.966;2023-09-12T00:22:44;99441.88;;;20.80;100.00
70133;BME280;57495;49.922;7.966;2023-09-12T00:24:45;99441.94;;;20.74;100.00
70133;BME280;57495;49.922;7.966;2023-09-12T00:26:47;99436.66;;;20.79;99.82
70133;BME280;57495;49.922;7.966;2023-09-12T00:28:48;99441.94;;;20.74;100.00
70133;BME280;57495;49.922;7.966;2023-09-12T00:30:50;99436.88;;;20.77;100.00
70133;BME280;57495;49.922;7.966;2023-09-12T00:32:52;99436.81;;;20.84;99.63
70133;BME280;57495;49.922;7.966;2023-09-12T00:34:55;99440.59;;;20.83;100.00
70133;BME280;57495;49.922;7.966;2023-09-12T00:36:56;99439.81;;;20.76;100.00
70133;BME280;57495;49.922;7.966;2023-09-12T00:38:58;99430.16;;;20.80;99.92
70133;BME280;57495;49.922;7.966;2023-09-12T00:40:59;99434.75;;;20.79;99.44
70133;BME280;57495;49.922;7.966;2023-09-12T00:43:01;99433.47;;;20.82;99.23
70133;BME280;57495;49.922;7.966;2023-09-12T00:45:02;99434.53;;;20.81;99.34
70133;BME280;57495;49.922;7.966;2023-09-12T00:47:04;99429.38;;;20.73;99.62
70133;BME280;57495;49.922;7.966;2023-09-12T00:49:07;99422.72;;;20.69;99.97
70133;BME280;57495;49.922;7.966;2023-09-12T00:51:11;99425.44;;;20.69;100.00
70133;BME280;57495;49.922;7.966;2023-09-12T00:53:14;99427.13;;;20.70;100.00
70133;BME280;57495;49.922;7.966;2023-09-12T00:55:15;99429.53;;;20.78;99.93
70133;BME280;57495;49.922;7.966;2023-09-12T00:57:17;99421.78;;;20.81;99.62
70133;BME280;57495;49.922;7.966;2023-09-12T00:59:20;99421.22;;;20.73;100.00
70133;BME280;57495;49.922;7.966;2023-09-12T01:01:21;99426.28;;;20.69;100.00
70133;BME280;57495;49.922;7.966;2023-09-12T01:03:23;99421.91;;;20.68;100.00
70133;BME280;57495;49.922;7.966;2023-09-12T01:05:26;99417.31;;;20.69;100.00
70133;BME280;57495;49.922;7.966;2023-09-12T01:07:29;99413.41;;;20.58;100.00
70133;BME280;57495;49.922;7.966;2023-09-12T01:09:31;99406.84;;;20.47;100.00
70133;BME280;57495;49.922;7.966;2023-09-12T01:11:32;99402.13;;;20.54;100.00
70133;BME280;57495;49.922;7.966;2023-09-12T01:13:34;99410.66;;;20.64;100.00
70133;BME280;57495;49.922;7.966;2023-09-12T01:15:35;99413.59;;;20.63;100.00
70133;BME280;57495;49.922;7.966;2023-09-12T01:17:37;99413.69;;;20.50;100.00
70133;BME280;57495;49.922;7.966;2023-09-12T01:19:38;99410.38;;;20.47;100.00
70133;BME280;57495;49.922;7.966;2023-09-12T01:22:15;99417.91;;;20.45;100.00
70133;BME280;57495;49.922;7.966;2023-09-12T01:27:16;99420.47;;;20.40;100.00
70133;BME280;57495;49.922;7.966;2023-09-12T01:29:21;99414.59;;;20.43;100.00
70133;BME280;57495;49.922;7.966;2023-09-12T01:31:23;99415.81;;;20.47;100.00
70133;BME280;57495;49.922;7.966;2023-09-12T01:33:25;99409.56;;;20.47;100.00
70133;BME280;57495;49.922;7.966;2023-09-12T01:35:26;99412.88;;;20.49;100.00
70133;BME280;57495;49.922;7.966;2023-09-12T01:37:28;99406.97;;;20.52;100.00
70133;BME280;57495;49.922;7.966;2023-09-12T01:39:30;99400.31;;;20.48;100.00
70133;BME280;57495;49.922;7.966;2023-09-12T01:41:35;99399.13;;;20.44;100.00
70133;BME280;57495;49.922;7.966;2023-09-12T01:43:39;99395.19;;;20.40;100.00
70133;BME280;57495;49.922;7.966;2023-09-12T01:45:42;99389.19;;;20.31;100.00
70133;BME280;57495;49.922;7.966;2023-09-12T01:47:45;99396.34;;;20.25;100.00
70133;BME280;57495;49.922;7.966;2023-09-12T01:49:49;99401.81;;;20.19;100.00
70133;BME280;57495;49.922;7.966;2023-09-12T01:51:53;99392.56;;;20.26;100.00
70133;BME280;57495;49.922;7.966;2023-09-12T01:53:55;99393.47;;;20.20;100.00
70133;BME280;57495;49.922;7.966;2023-09-12T01:55:57;99400.88;;;20.32;100.00
70133;BME280;57495;49.922;7.966;2023-09-12T01:57:59;99394.41;;;20.33;100.00
70133;BME280;57495;49.922;7.966;2023-09-12T02:00:03;99389.81;;;20.33;100.00
70133;BME280;57495;49.922;7.966;2023-09-12T02:02:04;99386.88;;;20.35;100.00
70133;BME280;57495;49.922;7.966;2023-09-12T02:04:07;99380.09;;;20.44;100.00
70133;BME280;57495;49.922;7.966;2023-09-12T02:06:09;99385.69;;;20.49;100.00
70133;BME280;57495;49.922;7.966;2023-09-12T02:08:09;99381.13;;;20.43;100.00
70133;BME280;57495;49.922;7.966;2023-09-12T02:10:11;99380.72;;;20.46;100.00
70133;BME280;57495;49.922;7.966;2023-09-12T02:12:12;99379.88;;;20.45;100.00
70133;BME280;57495;49.922;7.966;2023-09-12T02:14:14;99385.09;;;20.47;100.00
70133;BME280;57495;49.922;7.966;2023-09-12T02:16:16;99383.44;;;20.46;100.00
70133;BME280;57495;49.922;7.966;2023-09-12T02:18:18;99389.63;;;20.28;100.00
70133;BME280;57495;49.922;7.966;2023-09-12T02:20:19;99396.34;;;20.25;100.00
70133;BME280;57495;49.922;7.966;2023-09-12T02:22:21;99398.00;;;20.26;100.00
70133;BME280;57495;49.922;7.966;2023-09-12T02:24:23;99399.72;;;20.21;100.00
70133;BME280;57495;49.922;7.966;2023-09-12T02:26:24;99401.44;;;20.15;100.00
70133;BME280;57495;49.922;7.966;2023-09-12T02:28:25;99404.31;;;20.20;100.00
70133;BME280;57495;49.922;7.966;2023-09-12T02:30:27;99405.94;;;20.03;100.00
70133;BME280;57495;49.922;7.966;2023-09-12T02:32:31;99403.22;;;20.03;100.00
70133;BME280;57495;49.922;7.966;2023-09-12T02:34:33;99408.63;;;20.03;100.00
70133;BME280;57495;49.922;7.966;2023-09-12T02:36:34;99415.09;;;20.02;100.00
70133;BME280;57495;49.922;7.966;2023-09-12T02:38:36;99416.09;;;19.69;100.00
70133;BME280;57495;49.922;7.966;2023-09-12T02:40:37;99418.81;;;19.76;100.00
70133;BME280;57495;49.922;7.966;2023-09-12T02:42:38;99419.44;;;19.78;100.00
70133;BME280;57495;49.922;7.966;2023-09-12T02:44:40;99411.22;;;19.91;100.00
70133;BME280;57495;49.922;7.966;2023-09-12T02:46:41;99410.59;;;19.89;100.00
70133;BME280;57495;49.922;7.966;2023-09-12T02:48:44;99402.44;;;19.96;100.00
70133;BME280;57495;49.922;7.966;2023-09-12T02:50:46;99395.44;;;19.75;100.00
70133;BME280;57495;49.922;7.966;2023-09-12T02:52:47;99389.56;;;19.84;100.00
70133;BME280;57495;49.922;7.966;2023-09-12T02:54:47;99394.09;;;19.91;100.00
70133;BME280;57495;49.922;7.966;2023-09-12T02:56:49;99388.25;;;19.94;100.00
70133;BME280;57495;49.922;7.966;2023-09-12T02:58:50;99392.00;;;19.93;100.00
70133;BME280;57495;49.922;7.966;2023-09-12T03:00:52;99381.53;;;19.96;100.00
70133;BME280;57495;49.922;7.966;2023-09-12T03:02:54;99388.06;;;19.88;100.00
70133;BME280;57495;49.922;7.966;2023-09-12T03:04:57;99389.97;;;19.88;100.00
70133;BME280;57495;49.922;7.966;2023-09-12T03:06:58;99398.31;;;19.86;100.00
70133;BME280;57495;49.922;7.966;2023-09-12T03:09:00;99389.16;;;19.81;100.00
70133;BME280;57495;49.922;7.966;2023-09-12T03:11:01;99382.72;;;19.68;100.00
70133;BME280;57495;49.922;7.966;2023-09-12T03:13:03;99376.88;;;19.72;100.00
70133;BME280;57495;49.922;7.966;2023-09-12T03:15:05;99369.84;;;19.64;100.00
70133;BME280;57495;49.922;7.966;2023-09-12T03:17:07;99374.88;;;19.60;100.00
70133;BME280;57495;49.922;7.966;2023-09-12T03:19:08;99373.16;;;19.66;100.00
70133;BME280;57495;49.922;7.966;2023-09-12T03:21:11;99367.72;;;19.66;100.00
70133;BME280;57495;49.922;7.966;2023-09-12T03:23:12;99371.69;;;19.63;100.00
70133;BME280;57495;49.922;7.966;2023-09-12T03:25:13;99371.78;;;19.50;100.00
70133;BME280;57495;49.922;7.966;2023-09-12T03:27:14;99368.38;;;19.61;100.00
70133;BME280;57495;49.922;7.966;2023-09-12T03:29:16;99362.69;;;19.69;100.00
70133;BME280;57495;49.922;7.966;2023-09-12T03:31:18;99366.25;;;19.70;100.00
70133;BME280;57495;49.922;7.966;2023-09-12T03:33:20;99367.91;;;19.71;100.00
70133;BME280;57495;49.922;7.966;2023-09-12T03:35:21;99375.69;;;19.61;100.00
70133;BME280;57495;49.922;7.966;2023-09-12T03:37:24;99372.53;;;19.64;100.00
70133;BME280;57495;49.922;7.966;2023-09-12T03:39:27;99379.69;;;19.58;100.00
70133;BME280;57495;49.922;7.966;2023-09-12T03:41:28;99380.22;;;19.67;100.00
70133;BME280;57495;49.922;7.966;2023-09-12T03:43:30;99373.34;;;19.71;100.00
70133;BME280;57495;49.922;7.966;2023-09-12T03:45:31;99372.97;;;19.61;100.00
70133;BME280;57495;49.922;7.966;2023-09-12T03:47:33;99382.53;;;19.63;100.00
70133;BME280;57495;49.922;7.966;2023-09-12T03:49:34;99377.19;;;19.57;100.00
70133;BME280;57495;49.922;7.966;2023-09-12T03:51:36;99377.97;;;19.64;100.00
70133;BME280;57495;49.922;7.966;2023-09-12T03:53:39;99381.28;;;19.66;100.00
70133;BME280;57495;49.922;7.966;2023-09-12T03:55:41;99394.88;;;19.66;100.00
70133;BME280;57495;49.922;7.966;2023-09-12T03:57:42;99391.69;;;19.69;100.00
70133;BME280;57495;49.922;7.966;2023-09-12T03:59:44;99390.25;;;19.73;100.00
70133;BME280;57495;49.922;7.966;2023-09-12T04:01:46;99393.38;;;19.70;100.00
70133;BME280;57495;49.922;7.966;2023-09-12T04:03:48;99385.88;;;19.65;100.00
70133;BME280;57495;49.922;7.966;2023-09-12T04:05:50;99396.16;;;19.57;100.00
70133;BME280;57495;49.922;7.966;2023-09-12T04:07:51;99396.16;;;19.57;100.00
70133;BME280;57495;49.922;7.966;2023-09-12T04:09:53;99396.59;;;19.54;100.00
70133;BME280;57495;49.922;7.966;2023-09-12T04:11:55;99398.03;;;19.56;100.00
70133;BME280;57495;49.922;7.966;2023-09-12T04:13:56;99392.16;;;19.59;100.00
70133;BME280;57495;49.922;7.966;2023-09-12T04:15:58;99398.00;;;19.63;100.00
70133;BME280;57495;49.922;7.966;2023-09-12T04:17:59;99386.75;;;19.59;100.00
70133;BME280;57495;49.922;7.966;2023-09-12T04:20:01;99385.50;;;19.62;100.00
70133;BME280;57495;49.922;7.966;2023-09-12T04:22:03;99382.53;;;19.63;100.00
70133;BME280;57495;49.922;7.966;2023-09-12T04:24:06;99380.44;;;19.65;100.00
70133;BME280;57495;49.922;7.966;2023-09-12T04:26:09;99382.72;;;19.68;100.00
70133;BME280;57495;49.922;7.966;2023-09-12T04:28:10;99376.47;;;19.68;100.00
70133;BME280;57495;49.922;7.966;2023-09-12T04:30:12;99373.78;;;19.68;100.00
70133;BME280;57495;49.922;7.966;2023-09-12T04:32:14;99389.44;;;19.66;100.00
70133;BME280;57495;49.922;7.966;2023-09-12T04:34:17;99386.25;;;19.69;100.00
70133;BME280;57495;49.922;7.966;2023-09-12T04:36:18;99391.09;;;19.67;100.00
70133;BME280;57495;49.922;7.966;2023-09-12T04:38:20;99388.81;;;19.64;100.00
70133;BME280;57495;49.922;7.966;2023-09-12T04:40:23;99382.84;;;19.48;100.00
70133;BME280;57495;49.922;7.966;2023-09-12T04:42:25;99384.69;;;19.55;100.00
70133;BME280;57495;49.922;7.966;2023-09-12T04:44:26;99379.63;;;19.65;100.00
70133;BME280;57495;49.922;7.966;2023-09-12T04:46:27;99383.22;;;19.59;100.00
70133;BME280;57495;49.922;7.966;2023-09-12T04:48:28;99387.56;;;19.60;100.00
70133;BME280;57495;49.922;7.966;2023-09-12T04:50:29;99385.94;;;19.59;100.00
70133;BME280;57495;49.922;7.966;2023-09-12T04:52:31;99384.66;;;19.61;100.00
70133;BME280;57495;49.922;7.966;2023-09-12T04:54:32;99387.84;;;19.51;100.00
70133;BME280;57495;49.922;7.966;2023-09-12T04:56:34;99387.22;;;19.49;100.00
70133;BME280;57495;49.922;7.966;2023-09-12T04:58:36;99382.22;;;19.46;100.00
70133;BME280;57495;49.922;7.966;2023-09-12T05:00:39;99381.81;;;19.43;100.00
70133;BME280;57495;49.922;7.966;2023-09-12T05:02:41;99383.91;;;19.47;100.00
70133;BME280;57495;49.922;7.966;2023-09-12T05:04:42;99381.38;;;19.53;100.00
70133;BME280;57495;49.922;7.966;2023-09-12T05:06:43;99376.81;;;19.46;100.00
70133;BME280;57495;49.922;7.966;2023-09-12T05:08:45;99369.72;;;19.45;100.00
70133;BME280;57495;49.922;7.966;2023-09-12T05:10:47;99373.00;;;19.54;100.00
70133;BME280;57495;49.922;7.966;2023-09-12T05:12:48;99372.78;;;19.56;100.00
70133;BME280;57495;49.922;7.966;2023-09-12T05:14:51;99367.81;;;19.53;100.00
70133;BME280;57495;49.922;7.966;2023-09-12T05:16:52;99367.19;;;19.50;100.00
70133;BME280;57495;49.922;7.966;2023-09-12T05:18:54;99355.66;;;19.62;100.00
70133;BME280;57495;49.922;7.966;2023-09-12T05:20:55;99365.44;;;19.63;100.00
70133;BME280;57495;49.922;7.966;2023-09-12T05:22:57;99359.41;;;19.61;100.00
70133;BME280;57495;49.922;7.966;2023-09-12T05:24:58;99362.53;;;19.64;100.00
70133;BME280;57495;49.922;7.966;2023-09-12T05:26:59;99361.44;;;19.65;100.00
70133;BME280;57495;49.922;7.966;2023-09-12T05:29:00;99369.66;;;19.59;100.00
70133;BME280;57495;49.922;7.966;2023-09-12T05:31:03;99373.47;;;19.44;100.00
70133;BME280;57495;49.922;7.966;2023-09-12T05:33:05;99373.06;;;19.41;100.00
70133;BME280;57495;49.922;7.966;2023-09-12T05:35:06;99373.06;;;19.41;100.00
70133;BME280;57495;49.922;7.966;2023-09-12T05:37:07;99378.69;;;19.46;100.00
70133;BME280;57495;49.922;7.966;2023-09-12T05:39:09;99383.09;;;19.40;100.00
70133;BME280;57495;49.922;7.966;2023-09-12T05:41:10;99387.34;;;19.23;100.00
70133;BME280;57495;49.922;7.966;2023-09-12T05:43:12;99392.13;;;19.34;100.00
70133;BME280;57495;49.922;7.966;2023-09-12T05:45:13;99391.91;;;19.29;100.00
70133;BME280;57495;49.922;7.966;2023-09-12T05:47:16;99378.56;;;19.34;100.00
70133;BME280;57495;49.922;7.966;2023-09-12T05:49:17;99386.03;;;19.32;100.00
70133;BME280;57495;49.922;7.966;2023-09-12T05:51:19;99389.00;;;19.30;100.00
70133;BME280;57495;49.922;7.966;2023-09-12T05:53:20;99388.59;;;19.20;100.00
70133;BME280;57495;49.922;7.966;2023-09-12T05:55:21;99397.34;;;19.29;100.00
70133;BME280;57495;49.922;7.966;2023-09-12T05:57:24;99413.16;;;19.32;100.00
70133;BME280;57495;49.922;7.966;2023-09-12T05:59:25;99406.09;;;19.31;100.00
70133;BME280;57495;49.922;7.966;2023-09-12T06:01:27;99407.72;;;19.32;100.00
70133;BME280;57495;49.922;7.966;2023-09-12T06:03:29;99410.41;;;19.45;100.00
70133;BME280;57495;49.922;7.966;2023-09-12T06:05:31;99415.59;;;19.47;100.00
70133;BME280;57495;49.922;7.966;2023-09-12T06:07:32;99424.78;;;19.53;100.00
70133;BME280;57495;49.922;7.966;2023-09-12T06:09:34;99416.56;;;19.66;100.00
70133;BME280;57495;49.922;7.966;2023-09-12T06:11:35;99422.69;;;19.55;100.00
70133;BME280;57495;49.922;7.966;2023-09-12T06:13:37;99426.03;;;19.50;100.00
70133;BME280;57495;49.922;7.966;2023-09-12T06:15:38;99423.91;;;20.29;100.00
70133;BME280;57495;49.922;7.966;2023-09-12T06:17:41;99430.25;;;20.16;100.00
70133;BME280;57495;49.922;7.966;2023-09-12T06:19:43;99439.81;;;19.94;100.00
70133;BME280;57495;49.922;7.966;2023-09-12T06:21:44;99431.84;;;19.60;100.00
70133;BME280;57495;49.922;7.966;2023-09-12T06:23:45;99434.38;;;19.94;100.00
70133;BME280;57495;49.922;7.966;2023-09-12T06:25:47;99431.56;;;20.07;100.00
70133;BME280;57495;49.922;7.966;2023-09-12T06:27:47;99433.00;;;20.09;100.00
70133;BME280;57495;49.922;7.966;2023-09-12T06:29:49;99427.59;;;20.35;100.00
70133;BME280;57495;49.922;7.966;2023-09-12T06:31:51;99427.44;;;20.55;100.00
70133;BME280;57495;49.922;7.966;2023-09-12T06:33:53;99424.56;;;20.75;100.00
70133;BME280;57495;49.922;7.966;2023-09-12T06:35:56;99422.97;;;20.85;100.00
70133;BME280;57495;49.922;7.966;2023-09-12T06:37:57;99433.66;;;21.05;100.00
70133;BME280;57495;49.922;7.966;2023-09-12T06:39:58;99425.44;;;21.31;100.00
70133;BME280;57495;49.922;7.966;2023-09-12T06:42:00;99418.63;;;21.40;100.00
70133;BME280;57495;49.922;7.966;2023-09-12T06:44:02;99418.63;;;21.40;100.00
70133;BME280;57495;49.922;7.966;2023-09-12T06:46:05;99423.97;;;21.28;100.00
70133;BME280;57495;49.922;7.966;2023-09-12T06:48:06;99427.06;;;21.13;100.00
70133;BME280;57495;49.922;7.966;2023-09-12T06:50:09;99422.59;;;21.37;100.00
70133;BME280;57495;49.922;7.966;2023-09-12T06:52:12;99429.56;;;21.33;100.00
70133;BME280;57495;49.922;7.966;2023-09-12T06:54:13;99425.03;;;21.27;100.00
70133;BME280;57495;49.922;7.966;2023-09-12T06:56:15;99423.09;;;21.34;99.13
70133;BME280;57495;49.922;7.966;2023-09-12T06:58:16;99424.44;;;21.43;99.23
70133;BME280;57495;49.922;7.966;2023-09-12T07:00:18;99425.94;;;21.58;97.11
70133;BME280;57495;49.922;7.966;2023-09-12T07:02:20;99433.34;;;21.69;96.81
70133;BME280;57495;49.922;7.966;2023-09-12T07:04:21;99422.94;;;21.78;96.74
70133;BME280;57495;49.922;7.966;2023-09-12T07:06:23;99434.00;;;21.95;96.06
70133;BME280;57495;49.922;7.966;2023-09-12T07:08:26;99433.91;;;22.01;95.77
70133;BME280;57495;49.922;7.966;2023-09-12T07:10:26;99436.56;;;22.08;93.30
70133;BME280;57495;49.922;7.966;2023-09-12T07:12:28;99432.38;;;22.06;95.83
70133;BME280;57495;49.922;7.966;2023-09-12T07:16:31;99429.78;;;22.11;94.68
70133;BME280;57495;49.922;7.966;2023-09-12T07:18:33;99415.44;;;22.04;95.21
70133;BME280;57495;49.922;7.966;2023-09-12T07:20:34;99422.44;;;21.99;95.61
70133;BME280;57495;49.922;7.966;2023-09-12T07:22:36;99419.94;;;21.98;95.65
70133;BME280;57495;49.922;7.966;2023-09-12T07:24:39;99422.41;;;22.30;95.32
70133;BME280;57495;49.922;7.966;2023-09-12T07:26:40;99426.34;;;22.69;94.45
70133;BME280;57495;49.922;7.966;2023-09-12T07:28:41;99422.31;;;22.84;94.44
70133;BME280;57495;49.922;7.966;2023-09-12T07:30:45;99421.72;;;22.93;93.18
70133;BME280;57495;49.922;7.966;2023-09-12T07:32:47;99422.78;;;23.16;92.24
70133;BME280;57495;49.922;7.966;2023-09-12T07:34:48;99428.94;;;23.11;89.65
70133;BME280;57495;49.922;7.966;2023-09-12T07:36:50;99424.25;;;23.35;91.49
70133;BME280;57495;49.922;7.966;2023-09-12T07:38:51;99424.09;;;23.54;90.56
70133;BME280;57495;49.922;7.966;2023-09-12T07:40:54;99438.97;;;23.75;87.81
70133;BME280;57495;49.922;7.966;2023-09-12T07:42:55;99431.56;;;23.87;88.25
70133;BME280;57495;49.922;7.966;2023-09-12T07:44:56;99431.44;;;23.94;87.29
70133;BME280;57495;49.922;7.966;2023-09-12T07:46:58;99436.50;;;24.02;85.56
70133;BME280;57495;49.922;7.966;2023-09-12T07:48:59;99443.53;;;23.98;85.14
70133;BME280;57495;49.922;7.966;2023-09-12T07:51:00;99439.53;;;23.89;85.53
70133;BME280;57495;49.922;7.966;2023-09-12T07:53:01;99444.88;;;24.12;86.02
70133;BME280;57495;49.922;7.966;2023-09-12T07:55:03;99440.44;;;24.23;86.30
70133;BME280;57495;49.922;7.966;2023-09-12T07:57:06;99439.19;;;24.31;85.54
70133;BME280;57495;49.922;7.966;2023-09-12T07:59:07;99440.44;;;24.40;83.45
70133;BME280;57495;49.922;7.966;2023-09-12T08:01:10;99442.84;;;24.37;83.85
70133;BME280;57495;49.922;7.966;2023-09-12T08:03:11;99443.59;;;24.66;82.39
70133;BME280;57495;49.922;7.966;2023-09-12T08:05:13;99444.41;;;24.49;82.63
70133;BME280;57495;49.922;7.966;2023-09-12T08:07:13;99432.47;;;24.89;82.82
70133;BME280;57495;49.922;7.966;2023-09-12T08:09:15;99434.66;;;25.09;81.42
70133;BME280;57495;49.922;7.966;2023-09-12T08:11:16;99437.00;;;25.01;81.19
70133;BME280;57495;49.922;7.966;2023-09-12T08:13:19;99439.66;;;24.96;81.24
70133;BME280;57495;49.922;7.966;2023-09-12T08:15:21;99442.59;;;25.11;80.77
70133;BME280;57495;49.922;7.966;2023-09-12T08:17:23;99437.50;;;25.37;80.11
70133;BME280;57495;49.922;7.966;2023-09-12T08:19:23;99430.75;;;25.44;79.70
70133;BME280;57495;49.922;7.966;2023-09-12T08:21:25;99432.91;;;25.64;81.36
70133;BME280;57495;49.922;7.966;2023-09-12T08:23:26;99424.06;;;25.57;80.27
70133;BME280;57495;49.922;7.966;2023-09-12T08:25:27;99426.84;;;25.62;81.20
70133;BME280;57495;49.922;7.966;2023-09-12T08:27:29;99426.31;;;25.88;80.69
70133;BME280;57495;49.922;7.966;2023-09-12T08:29:33;99424.84;;;25.80;80.39
70133;BME280;57495;49.922;7.966;2023-09-12T08:31:34;99432.34;;;26.17;79.57
70133;BME280;57495;49.922;7.966;2023-09-12T08:33:35;99420.94;;;26.25;78.61
70133;BME280;57495;49.922;7.966;2023-09-12T08:35:37;99431.59;;;26.21;79.09
70133;BME280;57495;49.922;7.966;2023-09-12T08:37:39;99435.41;;;26.20;77.05
70133;BME280;57495;49.922;7.966;2023-09-12T08:39:42;99434.13;;;26.60;78.20
70133;BME280;57495;49.922;7.966;2023-09-12T08:41:44;99435.16;;;26.54;77.03
70133;BME280;57495;49.922;7.966;2023-09-12T08:43:47;99443.72;;;26.63;76.42
70133;BME280;57495;49.922;7.966;2023-09-12T08:45:51;99441.28;;;26.34;77.81
70133;BME280;57495;49.922;7.966;2023-09-12T08:47:53;99441.56;;;26.33;77.82
70133;BME280;57495;49.922;7.966;2023-09-12T08:49:56;99443.13;;;26.93;77.31
70133;BME280;57495;49.922;7.966;2023-09-12T08:51:58;99454.75;;;27.11;74.20
70133;BME280;57495;49.922;7.966;2023-09-12T08:54:00;99454.81;;;27.21;75.36
70133;BME280;57495;49.922;7.966;2023-09-12T08:56:04;99464.66;;;27.17;72.16
70133;BME280;57495;49.922;7.966;2023-09-12T08:58:06;99461.66;;;27.18;74.97
70133;BME280;57495;49.922;7.966;2023-09-12T09:00:08;99464.53;;;27.34;75.04
70133;BME280;57495;49.922;7.966;2023-09-12T09:02:14;99467.25;;;27.29;72.47
70133;BME280;57495;49.922;7.966;2023-09-12T09:04:17;99465.19;;;27.62;73.67
70133;BME280;57495;49.922;7.966;2023-09-12T09:06:21;99460.22;;;27.58;73.48
70133;BME280;57495;49.922;7.966;2023-09-12T09:08:23;99458.66;;;27.88;71.69
70133;BME280;57495;49.922;7.966;2023-09-12T09:10:25;99457.50;;;27.74;70.95
70133;BME280;57495;49.922;7.966;2023-09-12T09:12:27;99452.41;;;27.93;71.19
70133;BME280;57495;49.922;7.966;2023-09-12T09:14:29;99453.09;;;27.68;69.23
70133;BME280;57495;49.922;7.966;2023-09-12T09:16:31;99453.53;;;27.34;68.65
70133;BME280;57495;49.922;7.966;2023-09-12T09:18:49;99454.47;;;27.60;68.09
70133;BME280;57495;49.922;7.966;2023-09-12T09:20:50;99448.69;;;27.62;68.06
70133;BME280;57495;49.922;7.966;2023-09-12T09:23:02;99456.94;;;27.62;69.48
70133;BME280;57495;49.922;7.966;2023-09-12T09:25:10;99445.97;;;27.72;73.01
70133;BME280;57495;49.922;7.966;2023-09-12T09:27:32;99445.94;;;27.56;67.39
70133;BME280;57495;49.922;7.966;2023-09-12T09:29:46;99431.38;;;27.66;69.63
70133;BME280;57495;49.922;7.966;2023-09-12T09:31:49;99434.19;;;27.87;70.61
70133;BME280;57495;49.922;7.966;2023-09-12T09:33:52;99438.41;;;28.10;69.67
70133;BME280;57495;49.922;7.966;2023-09-12T09:36:02;99438.41;;;28.10;66.18
70133;BME280;57495;49.922;7.966;2023-09-12T09:38:05;99437.84;;;28.23;67.13
70133;BME280;57495;49.922;7.966;2023-09-12T09:40:08;99441.94;;;28.05;65.36
70133;BME280;57495;49.922;7.966;2023-09-12T09:42:10;99435.69;;;28.56;67.57
70133;BME280;57495;49.922;7.966;2023-09-12T09:44:13;99430.06;;;29.07;66.13
70133;BME280;57495;49.922;7.966;2023-09-12T09:46:15;99428.41;;;29.11;62.65
70133;BME280;57495;49.922;7.966;2023-09-12T09:48:20;99433.28;;;29.40;64.75
70133;BME280;57495;49.922;7.966;2023-09-12T09:50:23;99434.50;;;29.14;61.77
70133;BME280;57495;49.922;7.966;2023-09-12T09:52:25;99435.09;;;28.85;60.24
70133;BME280;57495;49.922;7.966;2023-09-12T09:54:27;99433.41;;;28.02;61.50
70133;BME280;57495;49.922;7.966;2023-09-12T09:56:28;99426.56;;;28.40;62.60
70133;BME280;57495;49.922;7.966;2023-09-12T09:58:30;99424.66;;;28.66;60.49
70133;BME280;57495;49.922;7.966;2023-09-12T10:00:33;99421.91;;;28.30;61.56
70133;BME280;57495;49.922;7.966;2023-09-12T10:02:38;99423.50;;;27.90;62.00
70133;BME280;57495;49.922;7.966;2023-09-12T10:04:43;99420.25;;;28.34;65.66
70133;BME280;57495;49.922;7.966;2023-09-12T10:06:47;99428.47;;;28.86;62.01
70133;BME280;57495;49.922;7.966;2023-09-12T10:08:50;99419.66;;;28.94;60.62
70133;BME280;57495;49.922;7.966;2023-09-12T10:10:52;99418.78;;;29.24;58.40
70133;BME280;57495;49.922;7.966;2023-09-12T10:12:56;99415.50;;;29.77;58.00
70133;BME280;57495;49.922;7.966;2023-09-12T10:14:59;99414.09;;;29.20;60.18
70133;BME280;57495;49.922;7.966;2023-09-12T10:17:02;99406.69;;;29.05;58.53
70133;BME280;57495;49.922;7.966;2023-09-12T10:19:08;99400.88;;;29.17;57.35
70133;BME280;57495;49.922;7.966;2023-09-12T10:21:14;99397.44;;;28.60;58.95
70133;BME280;57495;49.922;7.966;2023-09-12T10:23:20;99401.28;;;28.53;59.01
70133;BME280;57495;49.922;7.966;2023-09-12T10:25:25;99416.78;;;27.55;61.36
70133;BME280;57495;49.922;7.966;2023-09-12T10:27:27;99416.09;;;27.17;63.06
70133;BME280;57495;49.922;7.966;2023-09-12T10:29:30;99422.28;;;27.50;62.90
70133;BME280;57495;49.922;7.966;2023-09-12T10:31:33;99418.78;;;27.81;63.28
70133;BME280;57495;49.922;7.966;2023-09-12T10:33:35;99420.13;;;27.63;63.27
70133;BME280;57495;49.922;7.966;2023-09-12T10:35:37;99424.00;;;27.77;65.24
70133;BME280;57495;49.922;7.966;2023-09-12T10:37:41;99419.81;;;27.59;67.59
70133;BME280;57495;49.922;7.966;2023-09-12T10:39:48;99422.47;;;27.28;66.09
70133;BME280;57495;49.922;7.966;2023-09-12T10:41:51;99410.22;;;27.04;66.76
70133;BME280;57495;49.922;7.966;2023-09-12T10:43:53;99413.31;;;27.12;65.68
70133;BME280;57495;49.922;7.966;2023-09-12T10:45:55;99414.59;;;27.47;67.07
70133;BME280;57495;49.922;7.966;2023-09-12T10:47:59;99408.84;;;27.64;65.27